sensor_id;sensor_type;location;lat;lon;timestamp;pressure;altitude;pressure_sealevel;temperature
41593;BMP180;28026;48.562;14.440;2023-06-22T00:00:19;94210.00;;;28.50
41593;BMP180;28026;48.562;14.440;2023-06-22T00:02:50;94194.00;;;28.50
41593;BMP180;28026;48.562;14.440;2023-06-22T00:05:21;94207.00;;;28.50
41593;BMP180;28026;48.562;14.440;2023-06-22T00:07:51;94200.00;;;28.50
41593;BMP180;28026;48.562;14.440;2023-06-22T00:10:22;94198.00;;;28.50
41593;BMP180;28026;48.562;14.440;2023-06-22T00:12:53;94201.00;;;28.50
41593;BMP180;28026;48.562;14.440;2023-06-22T00:15:24;94196.00;;;28.50
41593;BMP180;28026;48.562;14.440;2023-06-22T00:17:55;94184.00;;;28.40
41593;BMP180;28026;48.562;14.440;2023-06-22T00:20:28;94187.00;;;28.30
41593;BMP180;28026;48.562;14.440;2023-06-22T00:22:59;94179.00;;;28.30
41593;BMP180;28026;48.562;14.440;2023-06-22T00:25:30;94165.00;;;28.30
41593;BMP180;28026;48.562;14.440;2023-06-22T00:28:02;94186.00;;;28.40
41593;BMP180;28026;48.562;14.440;2023-06-22T00:30:34;94198.00;;;28.40
41593;BMP180;28026;48.562;14.440;2023-06-22T00:33:05;94184.00;;;28.30
41593;BMP180;28026;48.562;14.440;2023-06-22T00:35:38;94164.00;;;28.30
41593;BMP180;28026;48.562;14.440;2023-06-22T00:38:11;94176.00;;;28.30
41593;BMP180;28026;48.562;14.440;2023-06-22T00:40:42;94178.00;;;28.30
41593;BMP180;28026;48.562;14.440;2023-06-22T00:43:14;94177.00;;;28.20
41593;BMP180;28026;48.562;14.440;2023-06-22T00:45:44;94164.00;;;28.20
41593;BMP180;28026;48.562;14.440;2023-06-22T00:48:15;94165.00;;;28.20
41593;BMP180;28026;48.562;14.440;2023-06-22T00:50:47;94152.00;;;28.20
41593;BMP180;28026;48.562;14.440;2023-06-22T00:53:19;94141.00;;;28.20
41593;BMP180;28026;48.562;14.440;2023-06-22T00:55:50;94158.00;;;28.10
41593;BMP180;28026;48.562;14.440;2023-06-22T00:58:24;94163.00;;;28.10
41593;BMP180;28026;48.562;14.440;2023-06-22T01:00:55;94154.00;;;28.00
41593;BMP180;28026;48.562;14.440;2023-06-22T01:03:27;94161.00;;;28.00
41593;BMP180;28026;48.562;14.440;2023-06-22T01:06:07;94124.00;;;28.00
41593;BMP180;28026;48.562;14.440;2023-06-22T01:08:56;94160.00;;;28.00
41593;BMP180;28026;48.562;14.440;2023-06-22T01:11:41;94144.00;;;28.00
41593;BMP180;28026;48.562;14.440;2023-06-22T01:14:23;94120.00;;;27.90
41593;BMP180;28026;48.562;14.440;2023-06-22T01:17:00;94126.00;;;27.80
41593;BMP180;28026;48.562;14.440;2023-06-22T01:19:43;94137.00;;;27.70
41593;BMP180;28026;48.562;14.440;2023-06-22T01:22:17;94149.00;;;27.70
41593;BMP180;28026;48.562;14.440;2023-06-22T01:25:09;94126.00;;;27.70
41593;BMP180;28026;48.562;14.440;2023-06-22T01:30:56;94132.00;;;27.50
41593;BMP180;28026;48.562;14.440;2023-06-22T01:33:37;94117.00;;;27.50
41593;BMP180;28026;48.562;14.440;2023-06-22T01:36:12;94130.00;;;27.50
41593;BMP180;28026;48.562;14.440;2023-06-22T01:38:45;94133.00;;;27.50
41593;BMP180;28026;48.562;14.440;2023-06-22T01:41:19;94109.00;;;27.50
41593;BMP180;28026;48.562;14.440;2023-06-22T01:43:52;94136.00;;;27.50
41593;BMP180;28026;48.562;14.440;2023-06-22T01:46:24;94131.00;;;27.40
41593;BMP180;28026;48.562;14.440;2023-06-22T01:48:56;94122.00;;;27.30
41593;BMP180;28026;48.562;14.440;2023-06-22T01:51:27;94110.00;;;27.30
41593;BMP180;28026;48.562;14.440;2023-06-22T01:53:58;94144.00;;;27.30
41593;BMP180;28026;48.562;14.440;2023-06-22T01:56:29;94134.00;;;27.30
41593;BMP180;28026;48.562;14.440;2023-06-22T01:59:25;94149.00;;;27.30
41593;BMP180;28026;48.562;14.440;2023-06-22T02:02:09;94145.00;;;27.30
41593;BMP180;28026;48.562;14.440;2023-06-22T02:04:52;94114.00;;;27.30
41593;BMP180;28026;48.562;14.440;2023-06-22T02:08:10;94132.00;;;27.30
41593;BMP180;28026;48.562;14.440;2023-06-22T02:10:49;94115.00;;;27.20
41593;BMP180;28026;48.562;14.440;2023-06-22T02:13:24;94099.00;;;27.20
41593;BMP180;28026;48.562;14.440;2023-06-22T02:15:56;94117.00;;;27.10
41593;BMP180;28026;48.562;14.440;2023-06-22T02:18:26;94117.00;;;27.00
41593;BMP180;28026;48.562;14.440;2023-06-22T02:20:58;94103.00;;;27.00
41593;BMP180;28026;48.562;14.440;2023-06-22T02:23:29;94121.00;;;27.00
41593;BMP180;28026;48.562;14.440;2023-06-22T02:26:02;94121.00;;;27.00
41593;BMP180;28026;48.562;14.440;2023-06-22T02:28:33;94120.00;;;26.90
41593;BMP180;28026;48.562;14.440;2023-06-22T02:31:04;94115.00;;;26.90
41593;BMP180;28026;48.562;14.440;2023-06-22T02:33:35;94079.00;;;26.90
41593;BMP180;28026;48.562;14.440;2023-06-22T02:36:06;94103.00;;;26.90
41593;BMP180;28026;48.562;14.440;2023-06-22T02:38:43;94095.00;;;26.80
41593;BMP180;28026;48.562;14.440;2023-06-22T02:41:18;94091.00;;;26.90
41593;BMP180;28026;48.562;14.440;2023-06-22T02:43:49;94083.00;;;26.90
41593;BMP180;28026;48.562;14.440;2023-06-22T02:46:20;94056.00;;;26.90
41593;BMP180;28026;48.562;14.440;2023-06-22T02:48:51;94053.00;;;26.80
41593;BMP180;28026;48.562;14.440;2023-06-22T02:51:22;94070.00;;;26.60
41593;BMP180;28026;48.562;14.440;2023-06-22T02:53:53;94086.00;;;26.50
41593;BMP180;28026;48.562;14.440;2023-06-22T02:56:28;94068.00;;;26.40
41593;BMP180;28026;48.562;14.440;2023-06-22T02:59:00;94093.00;;;26.40
41593;BMP180;28026;48.562;14.440;2023-06-22T03:01:31;94061.00;;;26.40
41593;BMP180;28026;48.562;14.440;2023-06-22T03:04:10;94066.00;;;26.40
41593;BMP180;28026;48.562;14.440;2023-06-22T03:06:40;94088.00;;;26.40
41593;BMP180;28026;48.562;14.440;2023-06-22T03:09:11;94070.00;;;26.40
41593;BMP180;28026;48.562;14.440;2023-06-22T03:11:42;94093.00;;;26.40
41593;BMP180;28026;48.562;14.440;2023-06-22T03:14:13;94060.00;;;26.40
41593;BMP180;28026;48.562;14.440;2023-06-22T03:16:44;94090.00;;;26.50
41593;BMP180;28026;48.562;14.440;2023-06-22T03:19:15;94069.00;;;26.40
41593;BMP180;28026;48.562;14.440;2023-06-22T03:21:47;94076.00;;;26.20
41593;BMP180;28026;48.562;14.440;2023-06-22T03:24:18;94060.00;;;26.10
41593;BMP180;28026;48.562;14.440;2023-06-22T03:26:49;94092.00;;;26.10
41593;BMP180;28026;48.562;14.440;2023-06-22T03:29:19;94082.00;;;26.10
41593;BMP180;28026;48.562;14.440;2023-06-22T03:31:50;94065.00;;;26.10
41593;BMP180;28026;48.562;14.440;2023-06-22T03:34:21;94069.00;;;26.10
41593;BMP180;28026;48.562;14.440;2023-06-22T03:36:52;94091.00;;;26.10
41593;BMP180;28026;48.562;14.440;2023-06-22T03:39:23;94075.00;;;26.10
41593;BMP180;28026;48.562;14.440;2023-06-22T03:41:53;94072.00;;;26.00
41593;BMP180;28026;48.562;14.440;2023-06-22T03:44:24;94095.00;;;25.90
41593;BMP180;28026;48.562;14.440;2023-06-22T03:46:55;94068.00;;;25.90
41593;BMP180;28026;48.562;14.440;2023-06-22T03:49:26;94066.00;;;26.00
41593;BMP180;28026;48.562;14.440;2023-06-22T03:51:57;94074.00;;;26.00
41593;BMP180;28026;48.562;14.440;2023-06-22T03:54:28;94106.00;;;25.90
41593;BMP180;28026;48.562;14.440;2023-06-22T03:57:00;94098.00;;;25.90
41593;BMP180;28026;48.562;14.440;2023-06-22T03:59:31;94107.00;;;25.90
41593;BMP180;28026;48.562;14.440;2023-06-22T04:02:03;94077.00;;;25.90
41593;BMP180;28026;48.562;14.440;2023-06-22T04:04:34;94088.00;;;26.00
41593;BMP180;28026;48.562;14.440;2023-06-22T04:07:05;94097.00;;;26.00
41593;BMP180;28026;48.562;14.440;2023-06-22T04:09:36;94098.00;;;26.10
41593;BMP180;28026;48.562;14.440;2023-06-22T04:12:07;94102.00;;;26.10
41593;BMP180;28026;48.562;14.440;2023-06-22T04:14:38;94076.00;;;26.20
41593;BMP180;28026;48.562;14.440;2023-06-22T04:17:09;94061.00;;;26.30
41593;BMP180;28026;48.562;14.440;2023-06-22T04:19:40;94100.00;;;26.30
41593;BMP180;28026;48.562;14.440;2023-06-22T04:22:11;94098.00;;;26.30
41593;BMP180;28026;48.562;14.440;2023-06-22T04:24:42;94056.00;;;26.30
41593;BMP180;28026;48.562;14.440;2023-06-22T04:27:13;94085.00;;;26.40
41593;BMP180;28026;48.562;14.440;2023-06-22T04:29:44;94086.00;;;26.40
41593;BMP180;28026;48.562;14.440;2023-06-22T04:32:19;94066.00;;;26.40
41593;BMP180;28026;48.562;14.440;2023-06-22T04:34:49;94062.00;;;26.50
41593;BMP180;28026;48.562;14.440;2023-06-22T04:37:22;94072.00;;;26.40
41593;BMP180;28026;48.562;14.440;2023-06-22T04:39:53;94080.00;;;26.40
41593;BMP180;28026;48.562;14.440;2023-06-22T04:42:28;94075.00;;;26.50
41593;BMP180;28026;48.562;14.440;2023-06-22T04:44:58;94064.00;;;26.50
41593;BMP180;28026;48.562;14.440;2023-06-22T04:47:29;94068.00;;;26.60
41593;BMP180;28026;48.562;14.440;2023-06-22T04:50:00;94068.00;;;26.70
41593;BMP180;28026;48.562;14.440;2023-06-22T04:52:36;94066.00;;;26.70
41593;BMP180;28026;48.562;14.440;2023-06-22T04:55:07;94062.00;;;26.80
41593;BMP180;28026;48.562;14.440;2023-06-22T04:57:39;94054.00;;;26.90
41593;BMP180;28026;48.562;14.440;2023-06-22T05:00:10;94047.00;;;27.00
41593;BMP180;28026;48.562;14.440;2023-06-22T05:02:47;94031.00;;;27.10
41593;BMP180;28026;48.562;14.440;2023-06-22T05:05:21;94050.00;;;27.20
41593;BMP180;28026;48.562;14.440;2023-06-22T05:07:51;94053.00;;;27.30
41593;BMP180;28026;48.562;14.440;2023-06-22T05:10:30;94040.00;;;27.40
41593;BMP180;28026;48.562;14.440;2023-06-22T05:13:00;94033.00;;;27.50
41593;BMP180;28026;48.562;14.440;2023-06-22T05:15:31;94058.00;;;27.60
41593;BMP180;28026;48.562;14.440;2023-06-22T05:18:07;94024.00;;;27.70
41593;BMP180;28026;48.562;14.440;2023-06-22T05:20:38;94037.00;;;27.80
41593;BMP180;28026;48.562;14.440;2023-06-22T05:23:08;94048.00;;;27.90
41593;BMP180;28026;48.562;14.440;2023-06-22T05:25:39;94049.00;;;28.00
41593;BMP180;28026;48.562;14.440;2023-06-22T05:28:10;94046.00;;;28.00
41593;BMP180;28026;48.562;14.440;2023-06-22T05:30:42;94050.00;;;28.00
41593;BMP180;28026;48.562;14.440;2023-06-22T05:33:12;94045.00;;;28.00
41593;BMP180;28026;48.562;14.440;2023-06-22T05:35:43;94039.00;;;28.10
41593;BMP180;28026;48.562;14.440;2023-06-22T05:38:14;94034.00;;;28.20
41593;BMP180;28026;48.562;14.440;2023-06-22T05:40:45;94048.00;;;28.30
41593;BMP180;28026;48.562;14.440;2023-06-22T05:43:16;94037.00;;;28.40
41593;BMP180;28026;48.562;14.440;2023-06-22T05:45:46;94040.00;;;28.50
41593;BMP180;28026;48.562;14.440;2023-06-22T05:48:17;94037.00;;;28.70
41593;BMP180;28026;48.562;14.440;2023-06-22T05:50:48;94047.00;;;28.90
41593;BMP180;28026;48.562;14.440;2023-06-22T05:53:19;94046.00;;;29.00
41593;BMP180;28026;48.562;14.440;2023-06-22T05:55:50;94037.00;;;29.20
41593;BMP180;28026;48.562;14.440;2023-06-22T05:58:21;94043.00;;;29.40
41593;BMP180;28026;48.562;14.440;2023-06-22T06:00:52;94040.00;;;29.50
41593;BMP180;28026;48.562;14.440;2023-06-22T06:03:23;94038.00;;;29.70
41593;BMP180;28026;48.562;14.440;2023-06-22T06:05:53;94038.00;;;29.90
41593;BMP180;28026;48.562;14.440;2023-06-22T06:08:24;94045.00;;;30.00
41593;BMP180;28026;48.562;14.440;2023-06-22T06:10:55;94056.00;;;30.20
41593;BMP180;28026;48.562;14.440;2023-06-22T06:13:27;94048.00;;;30.30
41593;BMP180;28026;48.562;14.440;2023-06-22T06:15:58;94052.00;;;30.40
41593;BMP180;28026;48.562;14.440;2023-06-22T06:18:29;94051.00;;;30.50
41593;BMP180;28026;48.562;14.440;2023-06-22T06:21:00;94042.00;;;30.60
41593;BMP180;28026;48.562;14.440;2023-06-22T06:23:31;94045.00;;;30.70
41593;BMP180;28026;48.562;14.440;2023-06-22T06:26:01;94048.00;;;30.90
41593;BMP180;28026;48.562;14.440;2023-06-22T06:28:32;94054.00;;;31.00
41593;BMP180;28026;48.562;14.440;2023-06-22T06:31:04;94046.00;;;31.20
41593;BMP180;28026;48.562;14.440;2023-06-22T06:33:39;94050.00;;;31.30
41593;BMP180;28026;48.562;14.440;2023-06-22T06:36:10;94053.00;;;31.40
41593;BMP180;28026;48.562;14.440;2023-06-22T06:38:41;94057.00;;;31.50
41593;BMP180;28026;48.562;14.440;2023-06-22T06:41:11;94057.00;;;31.70
41593;BMP180;28026;48.562;14.440;2023-06-22T06:43:42;94053.00;;;31.80
41593;BMP180;28026;48.562;14.440;2023-06-22T06:46:13;94052.00;;;31.90
41593;BMP180;28026;48.562;14.440;2023-06-22T06:48:44;94051.00;;;32.00
41593;BMP180;28026;48.562;14.440;2023-06-22T06:51:15;94050.00;;;32.20
41593;BMP180;28026;48.562;14.440;2023-06-22T06:53:46;94045.00;;;32.40
41593;BMP180;28026;48.562;14.440;2023-06-22T06:56:16;94045.00;;;32.50
41593;BMP180;28026;48.562;14.440;2023-06-22T06:58:49;94033.00;;;32.60
41593;BMP180;28026;48.562;14.440;2023-06-22T07:01:21;94037.00;;;32.70
41593;BMP180;28026;48.562;14.440;2023-06-22T07:03:52;94038.00;;;32.90
41593;BMP180;28026;48.562;14.440;2023-06-22T07:06:24;94030.00;;;33.00
41593;BMP180;28026;48.562;14.440;2023-06-22T07:08:59;94034.00;;;33.10
41593;BMP180;28026;48.562;14.440;2023-06-22T07:11:31;94035.00;;;33.20
41593;BMP180;28026;48.562;14.440;2023-06-22T07:14:01;94029.00;;;33.20
41593;BMP180;28026;48.562;14.440;2023-06-22T07:16:32;94023.00;;;33.20
41593;BMP180;28026;48.562;14.440;2023-06-22T07:19:03;94018.00;;;33.20
41593;BMP180;28026;48.562;14.440;2023-06-22T07:21:34;94026.00;;;33.30
41593;BMP180;28026;48.562;14.440;2023-06-22T07:24:05;94030.00;;;33.40
41593;BMP180;28026;48.562;14.440;2023-06-22T07:26:37;94023.00;;;33.50
41593;BMP180;28026;48.562;14.440;2023-06-22T07:29:08;94020.00;;;33.60
41593;BMP180;28026;48.562;14.440;2023-06-22T07:31:38;94025.00;;;33.80
41593;BMP180;28026;48.562;14.440;2023-06-22T07:34:11;94013.00;;;33.90
41593;BMP180;28026;48.562;14.440;2023-06-22T07:36:43;94018.00;;;33.90
41593;BMP180;28026;48.562;14.440;2023-06-22T07:39:14;94011.00;;;34.10
41593;BMP180;28026;48.562;14.440;2023-06-22T07:41:45;94011.00;;;34.20
41593;BMP180;28026;48.562;14.440;2023-06-22T07:44:16;94005.00;;;34.30
41593;BMP180;28026;48.562;14.440;2023-06-22T07:46:47;94013.00;;;34.50
41593;BMP180;28026;48.562;14.440;2023-06-22T07:49:17;94005.00;;;34.60
41593;BMP180;28026;48.562;14.440;2023-06-22T07:51:48;94004.00;;;34.70
41593;BMP180;28026;48.562;14.440;2023-06-22T07:54:19;94015.00;;;34.90
41593;BMP180;28026;48.562;14.440;2023-06-22T07:56:50;94010.00;;;35.00
41593;BMP180;28026;48.562;14.440;2023-06-22T07:59:20;94013.00;;;35.10
41593;BMP180;28026;48.562;14.440;2023-06-22T08:01:51;94011.00;;;35.20
41593;BMP180;28026;48.562;14.440;2023-06-22T08:04:22;94001.00;;;35.30
41593;BMP180;28026;48.562;14.440;2023-06-22T08:06:52;94012.00;;;35.50
41593;BMP180;28026;48.562;14.440;2023-06-22T08:09:24;94008.00;;;35.70
41593;BMP180;28026;48.562;14.440;2023-06-22T08:11:55;94007.00;;;35.80
41593;BMP180;28026;48.562;14.440;2023-06-22T08:14:27;94013.00;;;36.00
41593;BMP180;28026;48.562;14.440;2023-06-22T08:17:00;94005.00;;;36.20
41593;BMP180;28026;48.562;14.440;2023-06-22T08:19:31;94010.00;;;36.30
41593;BMP180;28026;48.562;14.440;2023-06-22T08:22:02;94017.00;;;36.50
41593;BMP180;28026;48.562;14.440;2023-06-22T08:24:33;94018.00;;;36.80
41593;BMP180;28026;48.562;14.440;2023-06-22T08:27:07;94018.00;;;36.90
41593;BMP180;28026;48.562;14.440;2023-06-22T08:29:40;94005.00;;;37.00
41593;BMP180;28026;48.562;14.440;2023-06-22T08:32:15;94011.00;;;37.20
41593;BMP180;28026;48.562;14.440;2023-06-22T08:34:46;94008.00;;;37.40
41593;BMP180;28026;48.562;14.440;2023-06-22T08:37:17;94010.00;;;37.50
41593;BMP180;28026;48.562;14.440;2023-06-22T08:39:47;93995.00;;;37.50
41593;BMP180;28026;48.562;14.440;2023-06-22T08:42:18;94005.00;;;37.50
41593;BMP180;28026;48.562;14.440;2023-06-22T08:44:49;94005.00;;;37.50
41593;BMP180;28026;48.562;14.440;2023-06-22T08:47:20;93995.00;;;37.60
41593;BMP180;28026;48.562;14.440;2023-06-22T08:49:51;94001.00;;;37.70
41593;BMP180;28026;48.562;14.440;2023-06-22T08:52:23;94000.00;;;37.80
41593;BMP180;28026;48.562;14.440;2023-06-22T08:54:54;94008.00;;;37.80
41593;BMP180;28026;48.562;14.440;2023-06-22T08:57:25;94003.00;;;37.90
41593;BMP180;28026;48.562;14.440;2023-06-22T08:59:56;93990.00;;;37.90
41593;BMP180;28026;48.562;14.440;2023-06-22T09:02:28;93987.00;;;37.90
41593;BMP180;28026;48.562;14.440;2023-06-22T09:05:03;93999.00;;;38.10
41593;BMP180;28026;48.562;14.440;2023-06-22T09:07:34;93979.00;;;38.20
41593;BMP180;28026;48.562;14.440;2023-06-22T09:10:06;93984.00;;;38.30
41593;BMP180;28026;48.562;14.440;2023-06-22T09:12:37;93988.00;;;38.50
41593;BMP180;28026;48.562;14.440;2023-06-22T09:15:08;93999.00;;;38.60
41593;BMP180;28026;48.562;14.440;2023-06-22T09:17:40;93995.00;;;38.80
41593;BMP180;28026;48.562;14.440;2023-06-22T09:20:12;93986.00;;;38.90
41593;BMP180;28026;48.562;14.440;2023-06-22T09:22:43;93990.00;;;39.10
41593;BMP180;28026;48.562;14.440;2023-06-22T09:25:14;93997.00;;;39.10
41593;BMP180;28026;48.562;14.440;2023-06-22T09:27:45;93984.00;;;39.10
41593;BMP180;28026;48.562;14.440;2023-06-22T09:30:15;93979.00;;;39.30
41593;BMP180;28026;48.562;14.440;2023-06-22T09:32:46;93979.00;;;39.40
41593;BMP180;28026;48.562;14.440;2023-06-22T09:35:17;93989.00;;;39.60
41593;BMP180;28026;48.562;14.440;2023-06-22T09:37:48;93996.00;;;39.70
41593;BMP180;28026;48.562;14.440;2023-06-22T09:40:18;93976.00;;;39.80
41593;BMP180;28026;48.562;14.440;2023-06-22T09:42:50;93986.00;;;39.90
41593;BMP180;28026;48.562;14.440;2023-06-22T09:45:21;93976.00;;;40.00
41593;BMP180;28026;48.562;14.440;2023-06-22T09:47:52;93977.00;;;40.10
41593;BMP180;28026;48.562;14.440;2023-06-22T09:50:22;93983.00;;;40.40
41593;BMP180;28026;48.562;14.440;2023-06-22T09:52:53;93980.00;;;40.50
41593;BMP180;28026;48.562;14.440;2023-06-22T09:55:25;93973.00;;;40.70
41593;BMP180;28026;48.562;14.440;2023-06-22T09:57:56;93979.00;;;40.80
41593;BMP180;28026;48.562;14.440;2023-06-22T10:00:26;93969.00;;;40.90
41593;BMP180;28026;48.562;14.440;2023-06-22T10:02:57;93964.00;;;41.00
41593;BMP180;28026;48.562;14.440;2023-06-22T10:05:28;93971.00;;;41.10
41593;BMP180;28026;48.562;14.440;2023-06-22T10:07:59;93976.00;;;41.20
41593;BMP180;28026;48.562;14.440;2023-06-22T10:10:30;93963.00;;;41.30
41593;BMP180;28026;48.562;14.440;2023-06-22T10:13:10;93966.00;;;41.20
41593;BMP180;28026;48.562;14.440;2023-06-22T10:15:42;93961.00;;;41.10
41593;BMP180;28026;48.562;14.440;2023-06-22T10:18:13;93970.00;;;41.00
41593;BMP180;28026;48.562;14.440;2023-06-22T10:20:46;93974.00;;;40.90
41593;BMP180;28026;48.562;14.440;2023-06-22T10:23:20;93971.00;;;41.00
41593;BMP180;28026;48.562;14.440;2023-06-22T10:25:51;93973.00;;;40.90
41593;BMP180;28026;48.562;14.440;2023-06-22T10:28:21;93974.00;;;40.90
41593;BMP180;28026;48.562;14.440;2023-06-22T10:30:52;93976.00;;;40.80
41593;BMP180;28026;48.562;14.440;2023-06-22T10:33:23;93977.00;;;40.70
41593;BMP180;28026;48.562;14.440;2023-06-22T10:35:54;93978.00;;;40.80
41593;BMP180;28026;48.562;14.440;2023-06-22T10:38:25;93963.00;;;41.00
41593;BMP180;28026;48.562;14.440;2023-06-22T10:40:56;93979.00;;;41.20
41593;BMP180;28026;48.562;14.440;2023-06-22T10:43:27;93971.00;;;41.20
41593;BMP180;28026;48.562;14.440;2023-06-22T10:45:58;93968.00;;;41.10
41593;BMP180;28026;48.562;14.440;2023-06-22T10:48:28;93949.00;;;40.90
41593;BMP180;28026;48.562;14.440;2023-06-22T10:50:59;93967.00;;;40.90
41593;BMP180;28026;48.562;14.440;2023-06-22T10:53:30;93961.00;;;41.20
41593;BMP180;28026;48.562;14.440;2023-06-22T10:56:01;93956.00;;;41.50
41593;BMP180;28026;48.562;14.440;2023-06-22T10:58:32;93964.00;;;41.50
41593;BMP180;28026;48.562;14.440;2023-06-22T11:01:02;93967.00;;;41.40
41593;BMP180;28026;48.562;14.440;2023-06-22T11:03:33;93969.00;;;41.40
41593;BMP180;28026;48.562;14.440;2023-06-22T11:06:04;93961.00;;;41.50
41593;BMP180;28026;48.562;14.440;2023-06-22T11:08:35;93957.00;;;41.60
41593;BMP180;28026;48.562;14.440;2023-06-22T11:11:06;93961.00;;;41.60
41593;BMP180;28026;48.562;14.440;2023-06-22T11:13:36;93956.00;;;41.50
41593;BMP180;28026;48.562;14.440;2023-06-22T11:16:07;93960.00;;;41.60
41593;BMP180;28026;48.562;14.440;2023-06-22T11:18:38;93949.00;;;41.70
41593;BMP180;28026;48.562;14.440;2023-06-22T11:21:08;93951.00;;;41.50
41593;BMP180;28026;48.562;14.440;2023-06-22T11:23:39;93952.00;;;41.40
41593;BMP180;28026;48.562;14.440;2023-06-22T11:26:10;93943.00;;;41.50
41593;BMP180;28026;48.562;14.440;2023-06-22T11:28:41;93936.00;;;41.80
41593;BMP180;28026;48.562;14.440;2023-06-22T11:31:11;93940.00;;;42.20
41593;BMP180;28026;48.562;14.440;2023-06-22T11:33:42;93942.00;;;42.20
41593;BMP180;28026;48.562;14.440;2023-06-22T11:36:15;93934.00;;;42.20
41593;BMP180;28026;48.562;14.440;2023-06-22T11:38:46;93945.00;;;42.30
41593;BMP180;28026;48.562;14.440;2023-06-22T11:41:17;93940.00;;;42.40
41593;BMP180;28026;48.562;14.440;2023-06-22T11:43:50;93932.00;;;42.30
41593;BMP180;28026;48.562;14.440;2023-06-22T11:46:21;93928.00;;;42.30
41593;BMP180;28026;48.562;14.440;2023-06-22T11:48:52;93934.00;;;42.50
41593;BMP180;28026;48.562;14.440;2023-06-22T11:51:23;93934.00;;;42.50
41593;BMP180;28026;48.562;14.440;2023-06-22T11:53:54;93923.00;;;42.60
41593;BMP180;28026;48.562;14.440;2023-06-22T11:56:24;93926.00;;;42.50
41593;BMP180;28026;48.562;14.440;2023-06-22T11:58:55;93919.00;;;42.20
41593;BMP180;28026;48.562;14.440;2023-06-22T12:01:27;93912.00;;;41.90
41593;BMP180;28026;48.562;14.440;2023-06-22T12:03:57;93921.00;;;41.90
41593;BMP180;28026;48.562;14.440;2023-06-22T12:06:28;93924.00;;;41.90
41593;BMP180;28026;48.562;14.440;2023-06-22T12:08:59;93910.00;;;41.90
41593;BMP180;28026;48.562;14.440;2023-06-22T12:11:30;93915.00;;;42.00
41593;BMP180;28026;48.562;14.440;2023-06-22T12:14:01;93898.00;;;42.00
41593;BMP180;28026;48.562;14.440;2023-06-22T12:16:32;93911.00;;;42.00
41593;BMP180;28026;48.562;14.440;2023-06-22T12:19:03;93891.00;;;42.00
41593;BMP180;28026;48.562;14.440;2023-06-22T12:21:34;93889.00;;;42.00
41593;BMP180;28026;48.562;14.440;2023-06-22T12:24:05;93879.00;;;42.10
41593;BMP180;28026;48.562;14.440;2023-06-22T12:26:35;93900.00;;;42.50
41593;BMP180;28026;48.562;14.440;2023-06-22T12:29:06;93895.00;;;42.70
41593;BMP180;28026;48.562;14.440;2023-06-22T12:31:37;93888.00;;;42.80
41593;BMP180;28026;48.562;14.440;2023-06-22T12:34:10;93887.00;;;42.80
41593;BMP180;28026;48.562;14.440;2023-06-22T12:36:40;93873.00;;;42.70
41593;BMP180;28026;48.562;14.440;2023-06-22T12:39:11;93888.00;;;42.60
41593;BMP180;28026;48.562;14.440;2023-06-22T12:41:42;93885.00;;;42.60
41593;BMP180;28026;48.562;14.440;2023-06-22T12:44:13;93884.00;;;42.50
41593;BMP180;28026;48.562;14.440;2023-06-22T12:46:43;93873.00;;;42.30
41593;BMP180;28026;48.562;14.440;2023-06-22T12:49:14;93865.00;;;42.30
41593;BMP180;28026;48.562;14.440;2023-06-22T12:51:45;93877.00;;;42.40
41593;BMP180;28026;48.562;14.440;2023-06-22T12:54:16;93869.00;;;42.30
41593;BMP180;28026;48.562;14.440;2023-06-22T12:56:47;93853.00;;;42.40
41593;BMP180;28026;48.562;14.440;2023-06-22T12:59:18;93870.00;;;42.70
41593;BMP180;28026;48.562;14.440;2023-06-22T13:01:49;93866.00;;;42.60
41593;BMP180;28026;48.562;14.440;2023-06-22T13:04:20;93854.00;;;42.50
41593;BMP180;28026;48.562;14.440;2023-06-22T13:06:51;93846.00;;;42.60
41593;BMP180;28026;48.562;14.440;2023-06-22T13:09:22;93847.00;;;42.80
41593;BMP180;28026;48.562;14.440;2023-06-22T13:11:53;93829.00;;;42.80
41593;BMP180;28026;48.562;14.440;2023-06-22T13:14:24;93836.00;;;42.90
41593;BMP180;28026;48.562;14.440;2023-06-22T13:16:55;93824.00;;;42.90
41593;BMP180;28026;48.562;14.440;2023-06-22T13:19:25;93827.00;;;43.20
41593;BMP180;28026;48.562;14.440;2023-06-22T13:21:59;93820.00;;;43.40
41593;BMP180;28026;48.562;14.440;2023-06-22T13:24:30;93831.00;;;43.60
41593;BMP180;28026;48.562;14.440;2023-06-22T13:27:01;93835.00;;;43.70
41593;BMP180;28026;48.562;14.440;2023-06-22T13:29:32;93842.00;;;43.90
41593;BMP180;28026;48.562;14.440;2023-06-22T13:32:03;93847.00;;;43.90
41593;BMP180;28026;48.562;14.440;2023-06-22T13:34:34;93839.00;;;43.80
41593;BMP180;28026;48.562;14.440;2023-06-22T13:37:05;93847.00;;;43.80
41593;BMP180;28026;48.562;14.440;2023-06-22T13:39:36;93840.00;;;43.80
41593;BMP180;28026;48.562;14.440;2023-06-22T13:42:07;93837.00;;;43.90
41593;BMP180;28026;48.562;14.440;2023-06-22T13:44:38;93834.00;;;44.00
41593;BMP180;28026;48.562;14.440;2023-06-22T13:47:09;93830.00;;;44.10
41593;BMP180;28026;48.562;14.440;2023-06-22T13:49:40;93827.00;;;44.30
41593;BMP180;28026;48.562;14.440;2023-06-22T13:52:10;93827.00;;;44.50
41593;BMP180;28026;48.562;14.440;2023-06-22T13:54:43;93812.00;;;44.10
41593;BMP180;28026;48.562;14.440;2023-06-22T13:57:14;93823.00;;;43.90
41593;BMP180;28026;48.562;14.440;2023-06-22T13:59:45;93809.00;;;43.80
41593;BMP180;28026;48.562;14.440;2023-06-22T14:02:16;93809.00;;;43.60
41593;BMP180;28026;48.562;14.440;2023-06-22T14:04:46;93814.00;;;43.60
41593;BMP180;28026;48.562;14.440;2023-06-22T14:07:17;93817.00;;;43.50
41593;BMP180;28026;48.562;14.440;2023-06-22T14:09:50;93811.00;;;43.40
41593;BMP180;28026;48.562;14.440;2023-06-22T14:12:21;93786.00;;;43.40
41593;BMP180;28026;48.562;14.440;2023-06-22T14:14:52;93797.00;;;43.30
41593;BMP180;28026;48.562;14.440;2023-06-22T14:17:23;93799.00;;;43.30
41593;BMP180;28026;48.562;14.440;2023-06-22T14:19:56;93803.00;;;43.40
41593;BMP180;28026;48.562;14.440;2023-06-22T14:22:27;93798.00;;;43.40
41593;BMP180;28026;48.562;14.440;2023-06-22T14:24:59;93781.00;;;43.60